sensor_id;sensor_type;location;lat;lon;timestamp;P1;durP1;ratioP1;P2;durP2;ratioP2
46607;SDS011;32330;51.936;7.184;2024-01-10T00:00:15;10.35;;;5.55;;
46607;SDS011;32330;51.936;7.184;2024-01-10T00:02:44;7.85;;;5.00;;
46607;SDS011;32330;51.936;7.184;2024-01-10T00:05:11;8.30;;;4.68;;
46607;SDS011;32330;51.936;7.184;2024-01-10T00:07:38;8.35;;;4.60;;
46607;SDS011;32330;51.936;7.184;2024-01-10T00:10:05;7.88;;;5.10;;
46607;SDS011;32330;51.936;7.184;2024-01-10T00:12:33;7.15;;;4.50;;
46607;SDS011;32330;51.936;7.184;2024-01-10T00:15:02;9.25;;;4.82;;
46607;SDS011;32330;51.936;7.184;2024-01-10T00:17:30;8.73;;;5.13;;
46607;SDS011;32330;51.936;7.184;2024-01-10T00:19:58;7.97;;;4.63;;
46607;SDS011;32330;51.936;7.184;2024-01-10T00:22:25;9.23;;;4.90;;
46607;SDS011;32330;51.936;7.184;2024-01-10T00:24:52;8.48;;;4.72;;
46607;SDS011;32330;51.936;7.184;2024-01-10T00:27:19;6.93;;;4.35;;
46607;SDS011;32330;51.936;7.184;2024-01-10T00:29:46;8.65;;;4.57;;
46607;SDS011;32330;51.936;7.184;2024-01-10T00:32:13;8.35;;;4.97;;
46607;SDS011;32330;51.936;7.184;2024-01-10T00:34:40;7.85;;;4.45;;
46607;SDS011;32330;51.936;7.184;2024-01-10T00:37:08;7.68;;;4.90;;
46607;SDS011;32330;51.936;7.184;2024-01-10T00:39:35;6.93;;;4.25;;
46607;SDS011;32330;51.936;7.184;2024-01-10T00:42:02;7.68;;;5.00;;
46607;SDS011;32330;51.936;7.184;2024-01-10T00:44:29;6.85;;;4.50;;
46607;SDS011;32330;51.936;7.184;2024-01-10T00:46:56;8.90;;;4.65;;
46607;SDS011;32330;51.936;7.184;2024-01-10T00:49:23;7.88;;;4.18;;
46607;SDS011;32330;51.936;7.184;2024-01-10T00:51:50;9.60;;;4.80;;
46607;SDS011;32330;51.936;7.184;2024-01-10T00:54:19;9.07;;;4.82;;
46607;SDS011;32330;51.936;7.184;2024-01-10T00:56:46;7.30;;;4.80;;
46607;SDS011;32330;51.936;7.184;2024-01-10T00:59:13;6.85;;;4.47;;
46607;SDS011;32330;51.936;7.184;2024-01-10T01:01:40;7.22;;;4.22;;
46607;SDS011;32330;51.936;7.184;2024-01-10T01:04:06;8.75;;;5.38;;
46607;SDS011;32330;51.936;7.184;2024-01-10T01:06:33;9.32;;;5.07;;
46607;SDS011;32330;51.936;7.184;2024-01-10T01:09:01;7.63;;;3.83;;
46607;SDS011;32330;51.936;7.184;2024-01-10T01:11:29;9.27;;;5.35;;
46607;SDS011;32330;51.936;7.184;2024-01-10T01:13:57;10.10;;;4.57;;
46607;SDS011;32330;51.936;7.184;2024-01-10T01:16:25;8.95;;;5.18;;
46607;SDS011;32330;51.936;7.184;2024-01-10T01:18:52;6.82;;;4.70;;
46607;SDS011;32330;51.936;7.184;2024-01-10T01:21:20;7.90;;;4.68;;
46607;SDS011;32330;51.936;7.184;2024-01-10T01:23:48;8.68;;;5.55;;
46607;SDS011;32330;51.936;7.184;2024-01-10T01:26:16;9.07;;;5.03;;
46607;SDS011;32330;51.936;7.184;2024-01-10T01:28:45;7.53;;;4.75;;
46607;SDS011;32330;51.936;7.184;2024-01-10T01:31:13;9.45;;;5.22;;
46607;SDS011;32330;51.936;7.184;2024-01-10T01:33:40;8.73;;;4.38;;
46607;SDS011;32330;51.936;7.184;2024-01-10T01:36:07;8.15;;;4.97;;
46607;SDS011;32330;51.936;7.184;2024-01-10T01:38:36;9.43;;;5.00;;
46607;SDS011;32330;51.936;7.184;2024-01-10T01:41:04;7.57;;;4.60;;
46607;SDS011;32330;51.936;7.184;2024-01-10T01:43:36;7.97;;;4.88;;
46607;SDS011;32330;51.936;7.184;2024-01-10T01:46:05;6.85;;;4.63;;
46607;SDS011;32330;51.936;7.184;2024-01-10T01:48:34;8.98;;;5.10;;
46607;SDS011;32330;51.936;7.184;2024-01-10T01:51:04;8.10;;;4.80;;
46607;SDS011;32330;51.936;7.184;2024-01-10T01:53:33;8.88;;;5.03;;
46607;SDS011;32330;51.936;7.184;2024-01-10T01:56:03;9.10;;;5.63;;
46607;SDS011;32330;51.936;7.184;2024-01-10T01:58:33;8.27;;;4.68;;
46607;SDS011;32330;51.936;7.184;2024-01-10T02:01:02;7.55;;;4.13;;
46607;SDS011;32330;51.936;7.184;2024-01-10T02:03:32;8.95;;;4.68;;
46607;SDS011;32330;51.936;7.184;2024-01-10T02:06:00;8.13;;;4.40;;
46607;SDS011;32330;51.936;7.184;2024-01-10T02:08:28;9.77;;;5.25;;
46607;SDS011;32330;51.936;7.184;2024-01-10T02:10:56;9.15;;;4.85;;
46607;SDS011;32330;51.936;7.184;2024-01-10T02:13:24;7.97;;;4.47;;
46607;SDS011;32330;51.936;7.184;2024-01-10T02:15:52;7.18;;;4.60;;
46607;SDS011;32330;51.936;7.184;2024-01-10T02:18:20;8.15;;;5.40;;
46607;SDS011;32330;51.936;7.184;2024-01-10T02:20:49;6.32;;;4.30;;
46607;SDS011;32330;51.936;7.184;2024-01-10T02:23:17;6.63;;;4.30;;
46607;SDS011;32330;51.936;7.184;2024-01-10T02:25:45;8.13;;;4.78;;
46607;SDS011;32330;51.936;7.184;2024-01-10T02:28:12;8.48;;;4.88;;
46607;SDS011;32330;51.936;7.184;2024-01-10T02:30:39;8.32;;;5.15;;
46607;SDS011;32330;51.936;7.184;2024-01-10T02:33:06;8.82;;;4.85;;
46607;SDS011;32330;51.936;7.184;2024-01-10T02:35:33;9.73;;;4.95;;
46607;SDS011;32330;51.936;7.184;2024-01-10T02:38:01;9.25;;;5.18;;
46607;SDS011;32330;51.936;7.184;2024-01-10T02:40:29;8.95;;;4.88;;
46607;SDS011;32330;51.936;7.184;2024-01-10T02:42:57;8.23;;;5.03;;
46607;SDS011;32330;51.936;7.184;2024-01-10T02:45:24;9.75;;;5.50;;
46607;SDS011;32330;51.936;7.184;2024-01-10T02:47:51;7.82;;;5.13;;
46607;SDS011;32330;51.936;7.184;2024-01-10T02:50:18;8.45;;;4.82;;
46607;SDS011;32330;51.936;7.184;2024-01-10T02:52:45;8.95;;;5.63;;
46607;SDS011;32330;51.936;7.184;2024-01-10T02:55:12;10.60;;;5.00;;
46607;SDS011;32330;51.936;7.184;2024-01-10T02:57:39;10.05;;;5.28;;
46607;SDS011;32330;51.936;7.184;2024-01-10T03:00:08;8.73;;;5.60;;
46607;SDS011;32330;51.936;7.184;2024-01-10T03:02:36;8.75;;;4.95;;
46607;SDS011;32330;51.936;7.184;2024-01-10T03:05:03;7.80;;;4.97;;
46607;SDS011;32330;51.936;7.184;2024-01-10T03:07:30;7.18;;;5.00;;
46607;SDS011;32330;51.936;7.184;2024-01-10T03:09:57;10.43;;;5.93;;
46607;SDS011;32330;51.936;7.184;2024-01-10T03:12:24;9.25;;;5.20;;
46607;SDS011;32330;51.936;7.184;2024-01-10T03:14:51;9.60;;;5.05;;
46607;SDS011;32330;51.936;7.184;2024-01-10T03:17:19;12.07;;;5.75;;
46607;SDS011;32330;51.936;7.184;2024-01-10T03:19:47;11.43;;;5.80;;
46607;SDS011;32330;51.936;7.184;2024-01-10T03:22:14;8.45;;;4.78;;
46607;SDS011;32330;51.936;7.184;2024-01-10T03:24:41;10.75;;;6.07;;
46607;SDS011;32330;51.936;7.184;2024-01-10T03:27:08;8.93;;;5.07;;
46607;SDS011;32330;51.936;7.184;2024-01-10T03:29:35;8.77;;;5.75;;
46607;SDS011;32330;51.936;7.184;2024-01-10T03:32:02;10.75;;;5.57;;
46607;SDS011;32330;51.936;7.184;2024-01-10T03:34:30;8.95;;;4.85;;
46607;SDS011;32330;51.936;7.184;2024-01-10T03:36:57;10.02;;;5.50;;
46607;SDS011;32330;51.936;7.184;2024-01-10T03:39:24;10.43;;;5.15;;
46607;SDS011;32330;51.936;7.184;2024-01-10T03:41:51;9.00;;;5.72;;
46607;SDS011;32330;51.936;7.184;2024-01-10T03:44:18;6.85;;;4.35;;
46607;SDS011;32330;51.936;7.184;2024-01-10T03:46:45;8.90;;;5.65;;
46607;SDS011;32330;51.936;7.184;2024-01-10T03:49:12;10.57;;;5.13;;
46607;SDS011;32330;51.936;7.184;2024-01-10T03:51:40;8.43;;;5.03;;
46607;SDS011;32330;51.936;7.184;2024-01-10T03:54:07;11.88;;;6.95;;
46607;SDS011;32330;51.936;7.184;2024-01-10T03:56:34;11.18;;;6.45;;
46607;SDS011;32330;51.936;7.184;2024-01-10T03:59:01;9.43;;;4.90;;
46607;SDS011;32330;51.936;7.184;2024-01-10T04:01:28;10.40;;;6.07;;
46607;SDS011;32330;51.936;7.184;2024-01-10T04:03:55;9.98;;;5.38;;
46607;SDS011;32330;51.936;7.184;2024-01-10T04:06:22;11.38;;;5.75;;
46607;SDS011;32330;51.936;7.184;2024-01-10T04:08:50;10.30;;;5.90;;
46607;SDS011;32330;51.936;7.184;2024-01-10T04:11:17;9.20;;;5.50;;
46607;SDS011;32330;51.936;7.184;2024-01-10T04:13:44;10.35;;;5.22;;
46607;SDS011;32330;51.936;7.184;2024-01-10T04:16:11;8.35;;;4.80;;
46607;SDS011;32330;51.936;7.184;2024-01-10T04:18:38;10.00;;;5.32;;
46607;SDS011;32330;51.936;7.184;2024-01-10T04:21:05;8.50;;;5.18;;
46607;SDS011;32330;51.936;7.184;2024-01-10T04:23:32;7.72;;;5.20;;
46607;SDS011;32330;51.936;7.184;2024-01-10T04:26:01;9.13;;;5.43;;
46607;SDS011;32330;51.936;7.184;2024-01-10T04:28:28;9.30;;;5.68;;
46607;SDS011;32330;51.936;7.184;2024-01-10T04:30:55;9.93;;;6.20;;
46607;SDS011;32330;51.936;7.184;2024-01-10T04:33:22;10.27;;;5.65;;
46607;SDS011;32330;51.936;7.184;2024-01-10T04:35:49;11.10;;;6.07;;
46607;SDS011;32330;51.936;7.184;2024-01-10T04:38:16;9.10;;;5.82;;
46607;SDS011;32330;51.936;7.184;2024-01-10T04:40:43;9.77;;;5.43;;
46607;SDS011;32330;51.936;7.184;2024-01-10T04:43:12;10.10;;;5.55;;
46607;SDS011;32330;51.936;7.184;2024-01-10T04:45:39;9.18;;;5.13;;
46607;SDS011;32330;51.936;7.184;2024-01-10T04:48:06;11.05;;;4.68;;
46607;SDS011;32330;51.936;7.184;2024-01-10T04:50:35;10.95;;;5.30;;
46607;SDS011;32330;51.936;7.184;2024-01-10T04:53:02;11.00;;;6.97;;
46607;SDS011;32330;51.936;7.184;2024-01-10T04:55:29;11.57;;;5.43;;
46607;SDS011;32330;51.936;7.184;2024-01-10T04:57:56;11.38;;;5.90;;
46607;SDS011;32330;51.936;7.184;2024-01-10T05:00:24;9.98;;;5.82;;
46607;SDS011;32330;51.936;7.184;2024-01-10T05:02:52;9.57;;;5.65;;
46607;SDS011;32330;51.936;7.184;2024-01-10T05:05:19;9.48;;;5.20;;
46607;SDS011;32330;51.936;7.184;2024-01-10T05:07:48;9.23;;;4.95;;
46607;SDS011;32330;51.936;7.184;2024-01-10T05:10:16;11.35;;;5.72;;
46607;SDS011;32330;51.936;7.184;2024-01-10T05:12:42;9.93;;;6.20;;
46607;SDS011;32330;51.936;7.184;2024-01-10T05:15:10;11.38;;;6.30;;
46607;SDS011;32330;51.936;7.184;2024-01-10T05:17:38;9.50;;;5.47;;
46607;SDS011;32330;51.936;7.184;2024-01-10T05:20:05;9.25;;;5.88;;
46607;SDS011;32330;51.936;7.184;2024-01-10T05:22:34;9.20;;;5.47;;
46607;SDS011;32330;51.936;7.184;2024-01-10T05:25:02;8.35;;;5.40;;
46607;SDS011;32330;51.936;7.184;2024-01-10T05:27:29;8.00;;;5.05;;
46607;SDS011;32330;51.936;7.184;2024-01-10T05:29:56;10.43;;;5.82;;
46607;SDS011;32330;51.936;7.184;2024-01-10T05:32:24;13.07;;;6.30;;
46607;SDS011;32330;51.936;7.184;2024-01-10T05:34:53;9.40;;;5.53;;
46607;SDS011;32330;51.936;7.184;2024-01-10T05:37:20;11.95;;;7.32;;
46607;SDS011;32330;51.936;7.184;2024-01-10T05:39:47;9.27;;;5.95;;
46607;SDS011;32330;51.936;7.184;2024-01-10T05:42:15;11.32;;;6.32;;
46607;SDS011;32330;51.936;7.184;2024-01-10T05:44:45;10.77;;;6.05;;
46607;SDS011;32330;51.936;7.184;2024-01-10T05:47:12;14.05;;;7.50;;
46607;SDS011;32330;51.936;7.184;2024-01-10T05:49:39;10.95;;;6.10;;
46607;SDS011;32330;51.936;7.184;2024-01-10T05:52:07;11.60;;;6.18;;
46607;SDS011;32330;51.936;7.184;2024-01-10T05:54:34;12.63;;;7.05;;
46607;SDS011;32330;51.936;7.184;2024-01-10T05:57:01;12.20;;;7.03;;
46607;SDS011;32330;51.936;7.184;2024-01-10T06:02:22;10.57;;;6.53;;
46607;SDS011;32330;51.936;7.184;2024-01-10T06:04:49;11.25;;;6.70;;
46607;SDS011;32330;51.936;7.184;2024-01-10T06:07:18;11.93;;;6.70;;
46607;SDS011;32330;51.936;7.184;2024-01-10T06:09:46;10.40;;;6.38;;
46607;SDS011;32330;51.936;7.184;2024-01-10T06:12:13;13.55;;;7.20;;
46607;SDS011;32330;51.936;7.184;2024-01-10T06:14:40;12.02;;;7.10;;
46607;SDS011;32330;51.936;7.184;2024-01-10T06:17:07;10.52;;;6.93;;
46607;SDS011;32330;51.936;7.184;2024-01-10T06:19:34;13.38;;;7.53;;
46607;SDS011;32330;51.936;7.184;2024-01-10T06:22:01;11.73;;;6.40;;
46607;SDS011;32330;51.936;7.184;2024-01-10T06:24:29;11.82;;;7.10;;
46607;SDS011;32330;51.936;7.184;2024-01-10T06:26:56;11.55;;;6.45;;
46607;SDS011;32330;51.936;7.184;2024-01-10T06:29:24;13.82;;;7.10;;
46607;SDS011;32330;51.936;7.184;2024-01-10T06:31:51;12.60;;;6.93;;
46607;SDS011;32330;51.936;7.184;2024-01-10T06:34:18;10.52;;;6.63;;
46607;SDS011;32330;51.936;7.184;2024-01-10T06:36:45;11.80;;;6.68;;
46607;SDS011;32330;51.936;7.184;2024-01-10T06:39:13;14.13;;;6.68;;
46607;SDS011;32330;51.936;7.184;2024-01-10T06:41:42;13.15;;;7.43;;
46607;SDS011;32330;51.936;7.184;2024-01-10T06:44:09;12.50;;;7.35;;
46607;SDS011;32330;51.936;7.184;2024-01-10T06:46:36;13.75;;;7.63;;
46607;SDS011;32330;51.936;7.184;2024-01-10T06:49:03;13.93;;;7.43;;
46607;SDS011;32330;51.936;7.184;2024-01-10T06:51:32;12.15;;;6.97;;
46607;SDS011;32330;51.936;7.184;2024-01-10T06:53:59;12.25;;;7.07;;
46607;SDS011;32330;51.936;7.184;2024-01-10T06:56:28;12.10;;;7.00;;
46607;SDS011;32330;51.936;7.184;2024-01-10T06:58:57;12.00;;;6.93;;
46607;SDS011;32330;51.936;7.184;2024-01-10T07:01:24;13.05;;;7.20;;
46607;SDS011;32330;51.936;7.184;2024-01-10T07:03:51;13.63;;;8.02;;
46607;SDS011;32330;51.936;7.184;2024-01-10T07:06:19;13.15;;;7.22;;
46607;SDS011;32330;51.936;7.184;2024-01-10T07:08:47;13.60;;;7.65;;
46607;SDS011;32330;51.936;7.184;2024-01-10T07:11:15;14.63;;;7.38;;
46607;SDS011;32330;51.936;7.184;2024-01-10T07:13:42;11.43;;;7.38;;
46607;SDS011;32330;51.936;7.184;2024-01-10T07:16:11;14.02;;;7.22;;
46607;SDS011;32330;51.936;7.184;2024-01-10T07:18:40;14.70;;;7.93;;
46607;SDS011;32330;51.936;7.184;2024-01-10T07:21:08;13.88;;;7.53;;
46607;SDS011;32330;51.936;7.184;2024-01-10T07:23:35;15.35;;;8.23;;
46607;SDS011;32330;51.936;7.184;2024-01-10T07:26:09;12.05;;;7.20;;
46607;SDS011;32330;51.936;7.184;2024-01-10T07:28:44;13.18;;;8.02;;
46607;SDS011;32330;51.936;7.184;2024-01-10T07:31:12;17.38;;;8.95;;
46607;SDS011;32330;51.936;7.184;2024-01-10T07:33:39;15.82;;;7.88;;
46607;SDS011;32330;51.936;7.184;2024-01-10T07:36:06;13.30;;;8.38;;
46607;SDS011;32330;51.936;7.184;2024-01-10T07:38:33;16.10;;;9.40;;
46607;SDS011;32330;51.936;7.184;2024-01-10T07:41:00;14.68;;;8.75;;
46607;SDS011;32330;51.936;7.184;2024-01-10T07:43:27;13.52;;;7.75;;
46607;SDS011;32330;51.936;7.184;2024-01-10T07:45:54;11.65;;;7.07;;
46607;SDS011;32330;51.936;7.184;2024-01-10T07:48:23;15.95;;;8.75;;
46607;SDS011;32330;51.936;7.184;2024-01-10T07:50:50;14.23;;;8.00;;
46607;SDS011;32330;51.936;7.184;2024-01-10T07:53:17;15.40;;;8.90;;
46607;SDS011;32330;51.936;7.184;2024-01-10T07:55:43;15.35;;;8.50;;
46607;SDS011;32330;51.936;7.184;2024-01-10T07:58:10;15.20;;;8.32;;
46607;SDS011;32330;51.936;7.184;2024-01-10T08:00:37;16.20;;;9.05;;
46607;SDS011;32330;51.936;7.184;2024-01-10T08:03:04;12.95;;;8.27;;
46607;SDS011;32330;51.936;7.184;2024-01-10T08:05:32;16.30;;;8.45;;
46607;SDS011;32330;51.936;7.184;2024-01-10T08:08:00;20.90;;;10.55;;
46607;SDS011;32330;51.936;7.184;2024-01-10T08:10:26;14.13;;;8.50;;
46607;SDS011;32330;51.936;7.184;2024-01-10T08:12:53;16.48;;;10.40;;
46607;SDS011;32330;51.936;7.184;2024-01-10T08:15:21;13.98;;;8.85;;
46607;SDS011;32330;51.936;7.184;2024-01-10T08:17:48;19.52;;;10.32;;
46607;SDS011;32330;51.936;7.184;2024-01-10T08:20:17;15.23;;;9.07;;
46607;SDS011;32330;51.936;7.184;2024-01-10T08:22:47;13.90;;;8.35;;
46607;SDS011;32330;51.936;7.184;2024-01-10T08:25:14;14.82;;;8.48;;
46607;SDS011;32330;51.936;7.184;2024-01-10T08:27:43;16.10;;;8.52;;
46607;SDS011;32330;51.936;7.184;2024-01-10T08:30:11;17.70;;;10.15;;
46607;SDS011;32330;51.936;7.184;2024-01-10T08:32:38;12.68;;;7.95;;
46607;SDS011;32330;51.936;7.184;2024-01-10T08:35:05;17.58;;;8.48;;
46607;SDS011;32330;51.936;7.184;2024-01-10T08:37:34;13.25;;;8.38;;
46607;SDS011;32330;51.936;7.184;2024-01-10T08:40:02;14.93;;;9.40;;
46607;SDS011;32330;51.936;7.184;2024-01-10T08:42:33;15.25;;;9.15;;
46607;SDS011;32330;51.936;7.184;2024-01-10T08:45:00;13.85;;;8.82;;
46607;SDS011;32330;51.936;7.184;2024-01-10T08:47:27;14.93;;;8.77;;
46607;SDS011;32330;51.936;7.184;2024-01-10T08:49:56;15.27;;;9.13;;
46607;SDS011;32330;51.936;7.184;2024-01-10T08:52:23;15.43;;;9.52;;
46607;SDS011;32330;51.936;7.184;2024-01-10T08:54:50;15.45;;;9.30;;
46607;SDS011;32330;51.936;7.184;2024-01-10T08:57:19;14.70;;;8.73;;
46607;SDS011;32330;51.936;7.184;2024-01-10T08:59:45;16.63;;;9.63;;
46607;SDS011;32330;51.936;7.184;2024-01-10T09:02:12;15.35;;;9.13;;
46607;SDS011;32330;51.936;7.184;2024-01-10T09:04:39;15.20;;;9.18;;
46607;SDS011;32330;51.936;7.184;2024-01-10T09:07:07;15.88;;;10.30;;
46607;SDS011;32330;51.936;7.184;2024-01-10T09:09:34;16.10;;;9.52;;
46607;SDS011;32330;51.936;7.184;2024-01-10T09:12:01;18.15;;;9.95;;
46607;SDS011;32330;51.936;7.184;2024-01-10T09:14:29;16.10;;;9.60;;
46607;SDS011;32330;51.936;7.184;2024-01-10T09:16:56;16.10;;;9.43;;
46607;SDS011;32330;51.936;7.184;2024-01-10T09:19:28;17.15;;;10.45;;
46607;SDS011;32330;51.936;7.184;2024-01-10T09:21:55;20.08;;;10.57;;
46607;SDS011;32330;51.936;7.184;2024-01-10T09:24:23;19.23;;;9.80;;
46607;SDS011;32330;51.936;7.184;2024-01-10T09:26:51;19.00;;;10.65;;
46607;SDS011;32330;51.936;7.184;2024-01-10T09:29:18;18.70;;;10.23;;
46607;SDS011;32330;51.936;7.184;2024-01-10T09:31:47;16.77;;;10.63;;
46607;SDS011;32330;51.936;7.184;2024-01-10T09:34:14;17.92;;;10.07;;
46607;SDS011;32330;51.936;7.184;2024-01-10T09:36:41;14.52;;;9.75;;
46607;SDS011;32330;51.936;7.184;2024-01-10T09:39:08;16.38;;;10.07;;
46607;SDS011;32330;51.936;7.184;2024-01-10T09:41:40;16.33;;;9.23;;
46607;SDS011;32330;51.936;7.184;2024-01-10T09:44:12;15.75;;;10.18;;
46607;SDS011;32330;51.936;7.184;2024-01-10T09:46:40;16.60;;;10.45;;
46607;SDS011;32330;51.936;7.184;2024-01-10T09:49:11;17.88;;;10.02;;
46607;SDS011;32330;51.936;7.184;2024-01-10T09:51:38;16.35;;;10.45;;
46607;SDS011;32330;51.936;7.184;2024-01-10T09:54:05;17.20;;;9.68;;
46607;SDS011;32330;51.936;7.184;2024-01-10T09:56:32;17.40;;;10.23;;
46607;SDS011;32330;51.936;7.184;2024-01-10T09:59:00;19.70;;;10.45;;
46607;SDS011;32330;51.936;7.184;2024-01-10T10:01:30;17.42;;;10.32;;
46607;SDS011;32330;51.936;7.184;2024-01-10T10:03:57;17.85;;;10.07;;
46607;SDS011;32330;51.936;7.184;2024-01-10T10:06:26;17.08;;;10.35;;
46607;SDS011;32330;51.936;7.184;2024-01-10T10:08:53;17.70;;;11.27;;
46607;SDS011;32330;51.936;7.184;2024-01-10T10:11:20;18.67;;;11.38;;
46607;SDS011;32330;51.936;7.184;2024-01-10T10:13:47;14.73;;;9.82;;
46607;SDS011;32330;51.936;7.184;2024-01-10T10:16:14;17.13;;;10.48;;
46607;SDS011;32330;51.936;7.184;2024-01-10T10:18:50;15.77;;;9.77;;
46607;SDS011;32330;51.936;7.184;2024-01-10T10:21:18;17.38;;;10.32;;
46607;SDS011;32330;51.936;7.184;2024-01-10T10:23:58;15.68;;;9.38;;
46607;SDS011;32330;51.936;7.184;2024-01-10T10:26:26;19.38;;;10.43;;
46607;SDS011;32330;51.936;7.184;2024-01-10T10:28:54;15.02;;;9.75;;
46607;SDS011;32330;51.936;7.184;2024-01-10T10:31:22;16.67;;;10.05;;
46607;SDS011;32330;51.936;7.184;2024-01-10T10:33:50;19.52;;;10.90;;
46607;SDS011;32330;51.936;7.184;2024-01-10T10:36:18;16.08;;;10.18;;
46607;SDS011;32330;51.936;7.184;2024-01-10T10:38:46;17.42;;;10.02;;
46607;SDS011;32330;51.936;7.184;2024-01-10T10:41:15;18.52;;;10.30;;
46607;SDS011;32330;51.936;7.184;2024-01-10T10:43:44;14.48;;;9.57;;
46607;SDS011;32330;51.936;7.184;2024-01-10T10:46:12;17.00;;;10.43;;
46607;SDS011;32330;51.936;7.184;2024-01-10T10:48:40;19.27;;;10.75;;
46607;SDS011;32330;51.936;7.184;2024-01-10T10:51:08;14.60;;;10.13;;
46607;SDS011;32330;51.936;7.184;2024-01-10T10:53:37;14.40;;;9.80;;
46607;SDS011;32330;51.936;7.184;2024-01-10T10:56:06;16.88;;;10.10;;
46607;SDS011;32330;51.936;7.184;2024-01-10T10:58:35;17.85;;;9.48;;
46607;SDS011;32330;51.936;7.184;2024-01-10T11:03:33;15.52;;;9.43;;
46607;SDS011;32330;51.936;7.184;2024-01-10T11:06:01;15.50;;;9.88;;
46607;SDS011;32330;51.936;7.184;2024-01-10T11:08:30;16.15;;;9.73;;
46607;SDS011;32330;51.936;7.184;2024-01-10T11:13:37;13.43;;;8.65;;
46607;SDS011;32330;51.936;7.184;2024-01-10T11:16:26;17.77;;;8.82;;
46607;SDS011;32330;51.936;7.184;2024-01-10T11:19:16;13.80;;;8.70;;
46607;SDS011;32330;51.936;7.184;2024-01-10T11:22:05;17.38;;;10.20;;
46607;SDS011;32330;51.936;7.184;2024-01-10T11:24:39;16.33;;;9.60;;
46607;SDS011;32330;51.936;7.184;2024-01-10T11:27:07;16.65;;;9.65;;
46607;SDS011;32330;51.936;7.184;2024-01-10T11:29:39;19.33;;;10.17;;
46607;SDS011;32330;51.936;7.184;2024-01-10T11:32:07;16.92;;;10.88;;
46607;SDS011;32330;51.936;7.184;2024-01-10T11:34:48;17.40;;;10.15;;
46607;SDS011;32330;51.936;7.184;2024-01-10T11:37:16;16.90;;;9.13;;
46607;SDS011;32330;51.936;7.184;2024-01-10T11:39:43;16.20;;;9.48;;
46607;SDS011;32330;51.936;7.184;2024-01-10T11:42:11;17.15;;;9.93;;
46607;SDS011;32330;51.936;7.184;2024-01-10T11:44:49;15.50;;;9.25;;
46607;SDS011;32330;51.936;7.184;2024-01-10T11:47:16;17.60;;;9.55;;
46607;SDS011;32330;51.936;7.184;2024-01-10T11:49:54;18.20;;;9.82;;
46607;SDS011;32330;51.936;7.184;2024-01-10T11:52:22;15.88;;;8.95;;
46607;SDS011;32330;51.936;7.184;2024-01-10T11:54:50;13.85;;;8.60;;
46607;SDS011;32330;51.936;7.184;2024-01-10T11:57:21;16.88;;;9.80;;
46607;SDS011;32330;51.936;7.184;2024-01-10T11:59:54;14.10;;;8.35;;
46607;SDS011;32330;51.936;7.184;2024-01-10T12:02:24;18.30;;;9.68;;
46607;SDS011;32330;51.936;7.184;2024-01-10T12:04:53;19.55;;;9.70;;
46607;SDS011;32330;51.936;7.184;2024-01-10T12:07:20;15.13;;;9.02;;
46607;SDS011;32330;51.936;7.184;2024-01-10T12:09:49;15.43;;;9.98;;
46607;SDS011;32330;51.936;7.184;2024-01-10T12:12:16;13.60;;;8.60;;
46607;SDS011;32330;51.936;7.184;2024-01-10T12:14:43;16.48;;;10.45;;
46607;SDS011;32330;51.936;7.184;2024-01-10T12:17:12;16.10;;;9.02;;
46607;SDS011;32330;51.936;7.184;2024-01-10T12:19:39;13.73;;;9.38;;
46607;SDS011;32330;51.936;7.184;2024-01-10T12:22:10;17.20;;;9.85;;
46607;SDS011;32330;51.936;7.184;2024-01-10T12:24:42;16.27;;;9.05;;
46607;SDS011;32330;51.936;7.184;2024-01-10T12:27:10;17.27;;;10.45;;
46607;SDS011;32330;51.936;7.184;2024-01-10T12:29:37;12.77;;;8.65;;
46607;SDS011;32330;51.936;7.184;2024-01-10T12:32:05;14.13;;;9.57;;
46607;SDS011;32330;51.936;7.184;2024-01-10T12:34:34;16.35;;;10.10;;
46607;SDS011;32330;51.936;7.184;2024-01-10T12:37:04;16.03;;;10.43;;
46607;SDS011;32330;51.936;7.184;2024-01-10T12:39:31;14.10;;;9.20;;
46607;SDS011;32330;51.936;7.184;2024-01-10T12:41:58;14.10;;;8.77;;
46607;SDS011;32330;51.936;7.184;2024-01-10T12:44:27;15.63;;;9.25;;
46607;SDS011;32330;51.936;7.184;2024-01-10T12:46:54;14.85;;;9.30;;
46607;SDS011;32330;51.936;7.184;2024-01-10T12:49:22;17.40;;;9.75;;
46607;SDS011;32330;51.936;7.184;2024-01-10T12:51:50;15.23;;;9.05;;
46607;SDS011;32330;51.936;7.184;2024-01-10T12:54:18;14.40;;;9.63;;
46607;SDS011;32330;51.936;7.184;2024-01-10T12:56:44;15.25;;;8.88;;
46607;SDS011;32330;51.936;7.184;2024-01-10T12:59:12;15.55;;;10.10;;
46607;SDS011;32330;51.936;7.184;2024-01-10T13:01:39;14.95;;;10.13;;
46607;SDS011;32330;51.936;7.184;2024-01-10T13:04:07;15.35;;;9.80;;
46607;SDS011;32330;51.936;7.184;2024-01-10T13:06:34;11.68;;;8.85;;
46607;SDS011;32330;51.936;7.184;2024-01-10T13:09:02;16.85;;;10.70;;
46607;SDS011;32330;51.936;7.184;2024-01-10T13:11:31;16.40;;;10.15;;
46607;SDS011;32330;51.936;7.184;2024-01-10T13:13:58;14.32;;;9.88;;
46607;SDS011;32330;51.936;7.184;2024-01-10T13:16:25;15.60;;;9.60;;
46607;SDS011;32330;51.936;7.184;2024-01-10T13:18:52;15.75;;;9.48;;
46607;SDS011;32330;51.936;7.184;2024-01-10T13:21:21;19.95;;;11.55;;
46607;SDS011;32330;51.936;7.184;2024-01-10T13:23:49;19.42;;;10.32;;
46607;SDS011;32330;51.936;7.184;2024-01-10T13:26:18;16.90;;;9.70;;
46607;SDS011;32330;51.936;7.184;2024-01-10T13:28:45;15.30;;;8.88;;
46607;SDS011;32330;51.936;7.184;2024-01-10T13:31:12;16.58;;;10.68;;
46607;SDS011;32330;51.936;7.184;2024-01-10T13:33:40;19.90;;;10.70;;
46607;SDS011;32330;51.936;7.184;2024-01-10T13:36:07;15.57;;;9.30;;
46607;SDS011;32330;51.936;7.184;2024-01-10T13:38:34;16.80;;;10.35;;
46607;SDS011;32330;51.936;7.184;2024-01-10T13:41:01;16.55;;;10.68;;
46607;SDS011;32330;51.936;7.184;2024-01-10T13:43:32;18.13;;;11.63;;
46607;SDS011;32330;51.936;7.184;2024-01-10T13:45:59;15.88;;;10.45;;
46607;SDS011;32330;51.936;7.184;2024-01-10T13:48:26;19.50;;;11.10;;
46607;SDS011;32330;51.936;7.184;2024-01-10T13:50:53;15.55;;;10.73;;
46607;SDS011;32330;51.936;7.184;2024-01-10T13:53:20;16.38;;;11.02;;
46607;SDS011;32330;51.936;7.184;2024-01-10T13:55:48;16.70;;;10.32;;
46607;SDS011;32330;51.936;7.184;2024-01-10T13:58:15;15.45;;;10.30;;
46607;SDS011;32330;51.936;7.184;2024-01-10T14:00:45;17.05;;;10.05;;
46607;SDS011;32330;51.936;7.184;2024-01-10T14:03:12;15.65;;;11.07;;
46607;SDS011;32330;51.936;7.184;2024-01-10T14:05:39;19.73;;;11.27;;
46607;SDS011;32330;51.936;7.184;2024-01-10T14:08:06;23.92;;;11.27;;
46607;SDS011;32330;51.936;7.184;2024-01-10T14:10:33;18.88;;;11.23;;
46607;SDS011;32330;51.936;7.184;2024-01-10T14:13:02;19.98;;;11.82;;
46607;SDS011;32330;51.936;7.184;2024-01-10T14:15:29;16.25;;;10.63;;
46607;SDS011;32330;51.936;7.184;2024-01-10T14:17:57;18.30;;;11.32;;
46607;SDS011;32330;51.936;7.184;2024-01-10T14:20:24;22.48;;;11.80;;
46607;SDS011;32330;51.936;7.184;2024-01-10T14:22:51;19.20;;;11.93;;
46607;SDS011;32330;51.936;7.184;2024-01-10T14:25:19;15.35;;;11.13;;
46607;SDS011;32330;51.936;7.184;2024-01-10T14:27:46;19.13;;;12.48;;
46607;SDS011;32330;51.936;7.184;2024-01-10T14:30:13;19.58;;;12.00;;
46607;SDS011;32330;51.936;7.184;2024-01-10T14:32:40;20.58;;;12.85;;
46607;SDS011;32330;51.936;7.184;2024-01-10T14:35:09;18.35;;;11.32;;
46607;SDS011;32330;51.936;7.184;2024-01-10T14:37:36;16.80;;;11.80;;
46607;SDS011;32330;51.936;7.184;2024-01-10T14:40:03;21.13;;;12.65;;
46607;SDS011;32330;51.936;7.184;2024-01-10T14:42:31;22.70;;;13.70;;
46607;SDS011;32330;51.936;7.184;2024-01-10T14:45:02;21.17;;;12.88;;
46607;SDS011;32330;51.936;7.184;2024-01-10T14:47:29;19.52;;;12.10;;